Main page
METAR-TAF:

METAR-TAF

Airports :

Humberside, England

Humberside Airport

latitude: 53-35N, longitude: 000-21W, elevation: 31 m

Current weather observation

The report was made 41 minutes ago, at 01:50 UTC
Wind 11 kt from the North/Northwest
Temperature 15°C
Humidity 100%
Pressure 1010 hPa
Visibility 10 km or more

METAR: EGNJ 240150Z AUTO 34011KT 9999 BKN003/// OVC006/// 15/15 Q1010

Time: 03:31 (02:31 UTC)

Forecast

The report was made 2 hours and 35 minutes ago, at 23:56 UTC
Forecast valid from 24 at 00 UTC to 24 at 09 UTC
Wind 9 kt from the Northwest
Visibility 10 km or more
Broken clouds at a height of 1200 ft
Temporary
from 24 at 00 UTC to 24 at 09 UTC
Visibility: 2500 m
Broken clouds at a height of 200 ft
rain showers, rain

TAF: EGNJ 232356Z 2400/2409 31009KT 9999 BKN012 TEMPO 2400/2409 2500 SHRA RA BKN002

Weather observations and forecasts of more than 4000 airports (METAR and TAF reports).

The available stations are represented by yellow and red dots on the map.

Hover mouse over dot to see the name of the station.

Then click to see weather observations and forecasts.

To change the map : click on the green buttons with a black cross to zoom in, on the green button with a dash to zoom out, or on the green arrows for adjacent maps.


METAR-TAF: